createdAt,value
2018-09-22T00:01:25.553Z,13.30
2018-09-22T00:03:52.958Z,13.30
2018-09-22T00:06:20.385Z,13.20
2018-09-22T00:08:48.477Z,13.30
2018-09-22T00:11:16.531Z,13.20
2018-09-22T00:13:43.937Z,13.20
2018-09-22T00:16:11.333Z,13.20
2018-09-22T00:18:38.753Z,13.20
2018-09-22T00:21:06.116Z,13.20
2018-09-22T00:23:33.521Z,13.10
2018-09-22T00:26:01.558Z,13.10
2018-09-22T00:28:29.065Z,13.10
2018-09-22T00:30:57.138Z,13.10
2018-09-22T00:33:25.206Z,13.10
2018-09-22T00:35:53.270Z,13.00
2018-09-22T00:38:21.307Z,13.00
2018-09-22T00:40:49.359Z,13.00
2018-09-22T00:43:16.782Z,13.00
2018-09-22T00:45:44.193Z,13.00
2018-09-22T00:48:12.222Z,12.90
2018-09-22T00:50:39.636Z,12.90
2018-09-22T00:53:07.026Z,12.90
2018-09-22T00:55:34.433Z,12.80
2018-09-22T00:58:01.837Z,12.80
2018-09-22T01:00:29.273Z,12.80
2018-09-22T01:02:56.634Z,12.80
2018-09-22T01:05:24.074Z,12.70
2018-09-22T01:07:51.477Z,12.70
2018-09-22T01:10:18.921Z,12.70
2018-09-22T01:12:46.285Z,12.70
2018-09-22T01:15:13.677Z,12.80
2018-09-22T01:17:41.061Z,12.80
2018-09-22T01:20:08.467Z,12.80
2018-09-22T01:22:36.498Z,12.80
2018-09-22T01:25:04.112Z,12.80
2018-09-22T01:27:31.550Z,12.80
2018-09-22T01:29:58.933Z,12.70
2018-09-22T01:32:26.326Z,12.70
2018-09-22T01:34:53.731Z,12.60
2018-09-22T01:37:21.120Z,12.60
2018-09-22T01:39:48.530Z,12.60
2018-09-22T01:42:16.569Z,12.60
2018-09-22T01:44:44.653Z,12.60
2018-09-22T01:47:12.041Z,12.60
2018-09-22T01:49:39.441Z,12.60
2018-09-22T01:52:07.526Z,12.60
2018-09-22T01:54:35.577Z,12.60
2018-09-22T01:57:02.973Z,12.60
2018-09-22T01:59:30.397Z,12.60
2018-09-22T02:01:58.465Z,12.60
2018-09-22T02:04:26.665Z,12.50
2018-09-22T02:06:54.065Z,12.50
2018-09-22T02:09:21.462Z,12.50
2018-09-22T02:11:48.850Z,12.50
2018-09-22T02:14:16.250Z,12.40
2018-09-22T02:16:44.302Z,12.50
2018-09-22T02:19:11.701Z,12.40
2018-09-22T02:21:39.818Z,12.40
2018-09-22T02:24:07.229Z,12.40
2018-09-22T02:26:34.625Z,12.40
2018-09-22T02:29:02.013Z,12.40
2018-09-22T02:31:29.396Z,12.30
2018-09-22T02:33:56.797Z,12.30
2018-09-22T02:36:24.215Z,12.20
2018-09-22T02:38:51.596Z,12.20
2018-09-22T02:41:19.002Z,12.20
2018-09-22T02:43:46.422Z,12.10
2018-09-22T02:46:13.839Z,12.10
2018-09-22T02:48:41.269Z,12.10
2018-09-22T02:51:08.678Z,12.00
2018-09-22T02:53:36.084Z,11.90
2018-09-22T02:56:03.638Z,12.00
2018-09-22T02:58:31.822Z,12.00
2018-09-22T03:00:59.314Z,12.00
2018-09-22T03:03:26.745Z,11.90
2018-09-22T03:05:54.153Z,11.90
2018-09-22T03:08:21.575Z,11.90
2018-09-22T03:10:48.973Z,11.80
2018-09-22T03:13:16.385Z,11.80
2018-09-22T03:15:43.796Z,11.70
2018-09-22T03:18:11.226Z,11.70
2018-09-22T03:20:38.621Z,11.70
2018-09-22T03:23:06.126Z,11.80
2018-09-22T03:25:33.547Z,11.80
2018-09-22T03:28:00.940Z,11.80
2018-09-22T03:30:28.352Z,11.80
2018-09-22T03:32:56.416Z,11.80
2018-09-22T03:35:23.797Z,11.70
2018-09-22T03:37:51.425Z,11.70
2018-09-22T03:40:18.818Z,11.70
2018-09-22T03:42:46.225Z,11.70
2018-09-22T03:45:13.620Z,11.70
2018-09-22T03:47:41.054Z,11.70
2018-09-22T03:50:08.461Z,11.70
2018-09-22T03:52:35.912Z,11.70
2018-09-22T03:55:03.317Z,11.70
2018-09-22T03:57:30.743Z,11.70
2018-09-22T03:59:58.149Z,11.70
2018-09-22T04:02:25.549Z,11.70
2018-09-22T04:04:52.949Z,11.70
2018-09-22T04:07:20.346Z,11.70
2018-09-22T04:09:47.785Z,11.70
2018-09-22T04:12:15.193Z,11.70
2018-09-22T04:14:43.261Z,11.70
2018-09-22T04:17:10.669Z,11.70
2018-09-22T04:19:38.077Z,11.70
2018-09-22T04:22:05.509Z,11.70
2018-09-22T04:24:32.949Z,11.70
2018-09-22T04:27:00.389Z,11.70
2018-09-22T04:29:27.797Z,11.70
2018-09-22T04:31:55.239Z,11.80
2018-09-22T04:34:22.642Z,11.80
2018-09-22T04:36:50.081Z,11.80
2018-09-22T04:39:17.481Z,11.70
2018-09-22T04:41:45.841Z,11.70
2018-09-22T04:44:13.270Z,11.70
2018-09-22T04:46:40.683Z,11.60
2018-09-22T04:49:08.762Z,11.60
2018-09-22T04:51:36.151Z,11.50
2018-09-22T04:54:03.541Z,11.60
2018-09-22T04:56:30.958Z,11.60
2018-09-22T04:58:58.401Z,11.60
2018-09-22T05:01:26.423Z,11.60
2018-09-22T05:03:53.958Z,11.50
2018-09-22T05:06:22.065Z,11.60
2018-09-22T05:08:49.486Z,11.60
2018-09-22T05:11:16.897Z,11.60
2018-09-22T05:13:44.285Z,11.60
2018-09-22T05:16:12.354Z,11.60
2018-09-22T05:18:39.737Z,11.60
2018-09-22T05:21:07.132Z,11.60
2018-09-22T05:23:34.523Z,11.60
2018-09-22T05:26:02.485Z,11.60
2018-09-22T05:28:30.104Z,11.60
2018-09-22T05:30:58.194Z,11.70
2018-09-22T05:33:25.608Z,11.70
2018-09-22T05:35:52.992Z,11.70
2018-09-22T05:38:20.601Z,11.70
2018-09-22T05:40:48.013Z,11.80
2018-09-22T05:43:15.410Z,11.80
2018-09-22T05:45:42.806Z,11.70
2018-09-22T05:48:10.197Z,11.70
2018-09-22T05:50:37.589Z,11.60
2018-09-22T05:53:05.674Z,11.70
2018-09-22T05:55:33.760Z,11.60
2018-09-22T05:58:01.815Z,11.60
2018-09-22T06:00:32.685Z,11.60
2018-09-22T06:03:00.093Z,11.60
2018-09-22T06:05:27.510Z,11.60
2018-09-22T06:07:55.590Z,11.70
2018-09-22T06:10:23.005Z,11.70
2018-09-22T06:12:51.025Z,11.70
2018-09-22T06:15:18.433Z,11.80
2018-09-22T06:17:46.501Z,11.90
2018-09-22T06:20:13.899Z,11.90
2018-09-22T06:22:41.280Z,12.00
2018-09-22T06:25:08.686Z,12.00
2018-09-22T06:27:36.749Z,12.00
2018-09-22T06:30:04.142Z,12.10
2018-09-22T06:32:32.199Z,12.20
2018-09-22T06:34:59.605Z,12.30
2018-09-22T06:37:27.039Z,12.30
2018-09-22T06:39:54.411Z,12.30
2018-09-22T06:42:21.816Z,12.30
2018-09-22T06:44:50.042Z,12.40
2018-09-22T06:47:18.142Z,12.30
2018-09-22T06:49:45.550Z,12.40
2018-09-22T06:52:13.609Z,12.40
2018-09-22T06:54:41.704Z,12.40
2018-09-22T06:57:09.105Z,12.40
2018-09-22T06:59:36.513Z,12.50
2018-09-22T07:02:03.925Z,12.50
2018-09-22T07:04:31.327Z,12.60
2018-09-22T07:06:58.734Z,12.70
2018-09-22T07:09:26.783Z,12.70
2018-09-22T07:11:54.189Z,12.60
2018-09-22T07:14:21.589Z,12.80
2018-09-22T07:16:49.702Z,12.80
2018-09-22T07:19:17.096Z,12.90
2018-09-22T07:22:50.869Z,12.90
2018-09-22T07:25:18.300Z,13.00
2018-09-22T07:27:45.669Z,13.10
2018-09-22T07:30:13.727Z,13.10
2018-09-22T07:32:41.134Z,13.10
2018-09-22T07:35:08.554Z,13.20
2018-09-22T07:37:35.947Z,13.30
2018-09-22T07:40:03.406Z,13.50
2018-09-22T07:42:30.802Z,13.70
2018-09-22T07:44:58.188Z,13.70
2018-09-22T07:47:25.583Z,13.60
2018-09-22T07:49:53.025Z,13.70
2018-09-22T07:52:20.430Z,13.70
2018-09-22T07:54:47.824Z,13.70
2018-09-22T07:57:15.306Z,13.80
2018-09-22T07:59:42.763Z,13.90
2018-09-22T08:02:10.170Z,13.80
2018-09-22T08:04:38.112Z,13.90
2018-09-22T08:07:05.506Z,13.90
2018-09-22T08:09:32.985Z,13.90
2018-09-22T08:12:00.429Z,13.80
2018-09-22T08:14:27.934Z,13.90
2018-09-22T08:16:55.346Z,13.90
2018-09-22T08:19:22.773Z,14.00
2018-09-22T08:21:50.210Z,14.10
2018-09-22T08:24:17.665Z,14.00
2018-09-22T08:26:45.082Z,14.00
2018-09-22T08:29:12.525Z,14.00
2018-09-22T08:31:39.925Z,14.10
2018-09-22T08:34:07.427Z,14.10
2018-09-22T08:36:35.101Z,14.30
2018-09-22T08:39:02.277Z,14.30
2018-09-22T08:41:29.689Z,14.30
2018-09-22T08:43:57.152Z,14.30
2018-09-22T08:46:24.500Z,14.40
2018-09-22T08:48:51.913Z,14.40
2018-09-22T08:51:19.614Z,14.50
2018-09-22T08:53:47.026Z,14.70
2018-09-22T08:56:14.428Z,14.80
2018-09-22T08:58:41.823Z,14.90
2018-09-22T09:01:09.209Z,14.90
2018-09-22T09:03:36.602Z,14.80
2018-09-22T09:06:04.015Z,15.00
2018-09-22T09:08:31.405Z,15.30
2018-09-22T09:10:58.812Z,15.40
2018-09-22T09:13:26.228Z,15.40
2018-09-22T09:15:53.606Z,15.50
2018-09-22T09:18:20.993Z,15.40
2018-09-22T09:20:48.381Z,15.40
2018-09-22T09:23:15.789Z,15.50
2018-09-22T09:25:43.174Z,15.50
2018-09-22T09:28:10.582Z,15.50
2018-09-22T09:30:37.985Z,15.80
2018-09-22T09:33:05.369Z,15.90
2018-09-22T09:35:32.772Z,15.90
2018-09-22T09:38:00.199Z,15.90
2018-09-22T09:40:27.621Z,15.70
2018-09-22T09:42:55.036Z,15.70
2018-09-22T09:45:22.425Z,15.90
2018-09-22T09:47:49.822Z,15.90
2018-09-22T09:50:17.205Z,16.00
2018-09-22T09:52:44.613Z,16.10
2018-09-22T09:55:12.006Z,15.90
2018-09-22T09:57:39.417Z,16.10
2018-09-22T10:00:06.801Z,16.20
2018-09-22T10:02:34.205Z,16.20
2018-09-22T10:05:01.590Z,16.20
2018-09-22T10:07:28.999Z,16.00
2018-09-22T10:09:56.429Z,15.80
2018-09-22T10:12:23.853Z,15.60
2018-09-22T10:14:51.252Z,15.90
2018-09-22T10:17:18.673Z,16.00
2018-09-22T10:19:46.093Z,16.20
2018-09-22T10:22:13.545Z,16.40
2018-09-22T10:24:40.961Z,16.20
2018-09-22T10:27:08.354Z,16.50
2018-09-22T10:29:35.774Z,16.60
2018-09-22T10:32:03.184Z,16.40
2018-09-22T10:34:30.597Z,16.50
2018-09-22T10:36:58.009Z,16.20
2018-09-22T10:39:25.415Z,16.40
2018-09-22T10:41:52.826Z,16.60
2018-09-22T10:44:20.274Z,17.00
2018-09-22T10:46:47.738Z,17.30
2018-09-22T10:49:15.233Z,17.40
2018-09-22T10:51:42.765Z,17.50
2018-09-22T10:54:10.214Z,17.40
2018-09-22T10:56:37.709Z,17.40
2018-09-22T10:59:05.329Z,17.40
2018-09-22T11:01:32.741Z,17.80
2018-09-22T11:04:00.133Z,17.50
2018-09-22T11:06:27.546Z,17.80
2018-09-22T11:08:54.951Z,18.40
2018-09-22T11:11:22.415Z,18.90
2018-09-22T11:13:49.771Z,18.90
2018-09-22T11:16:17.204Z,19.20
2018-09-22T11:18:45.977Z,18.80
2018-09-22T11:21:13.399Z,18.90
2018-09-22T11:23:41.088Z,19.20
2018-09-22T11:26:08.485Z,19.20
2018-09-22T11:28:35.870Z,20.30
2018-09-22T11:31:03.277Z,21.40
2018-09-22T11:33:30.652Z,21.10
2018-09-22T11:35:58.066Z,21.70
2018-09-22T11:38:25.472Z,22.50
2018-09-22T11:40:52.948Z,22.90
2018-09-22T11:43:20.335Z,22.90
2018-09-22T11:45:47.741Z,22.40
2018-09-22T11:48:15.149Z,22.90
2018-09-22T11:50:42.580Z,23.20
2018-09-22T11:53:09.982Z,23.50
2018-09-22T11:55:37.442Z,24.00
2018-09-22T11:58:04.949Z,23.20
2018-09-22T12:00:32.361Z,23.00
2018-09-22T12:02:59.784Z,21.20
2018-09-22T12:05:27.186Z,21.10
2018-09-22T12:07:54.593Z,21.40
2018-09-22T12:10:21.997Z,21.90
2018-09-22T12:12:49.410Z,22.20
2018-09-22T12:15:16.810Z,21.30
2018-09-22T12:17:44.207Z,20.70
2018-09-22T12:20:11.613Z,20.00
2018-09-22T12:22:39.112Z,20.40
2018-09-22T12:25:06.505Z,21.30
2018-09-22T12:27:33.891Z,21.50
2018-09-22T12:30:01.297Z,21.70
2018-09-22T12:32:28.697Z,21.60
2018-09-22T12:34:56.073Z,21.30
2018-09-22T12:37:23.491Z,21.30
2018-09-22T12:39:50.871Z,21.40
2018-09-22T12:42:18.262Z,22.10
2018-09-22T12:44:45.660Z,21.70
2018-09-22T12:47:13.058Z,21.50
2018-09-22T12:49:40.453Z,20.80
2018-09-22T12:52:07.865Z,20.40
2018-09-22T12:54:35.350Z,21.00
2018-09-22T12:57:02.771Z,22.10
2018-09-22T12:59:30.177Z,23.30
2018-09-22T13:01:57.567Z,24.20
2018-09-22T13:04:25.082Z,24.30
2018-09-22T13:06:52.474Z,24.60
2018-09-22T13:09:19.881Z,24.70
2018-09-22T13:11:47.260Z,23.20
2018-09-22T13:14:14.684Z,22.10
2018-09-22T13:16:42.113Z,22.40
2018-09-22T13:19:09.517Z,22.50
2018-09-22T13:21:36.997Z,23.10
2018-09-22T13:24:04.393Z,23.60
2018-09-22T13:26:31.801Z,23.60
2018-09-22T13:28:59.197Z,22.90
2018-09-22T13:31:26.613Z,22.80
2018-09-22T13:33:54.275Z,22.70
2018-09-22T13:36:21.668Z,22.70
2018-09-22T13:38:49.054Z,23.20
2018-09-22T13:41:16.445Z,23.60
2018-09-22T13:43:43.858Z,23.60
2018-09-22T13:46:11.250Z,22.90
2018-09-22T13:48:38.769Z,22.70
2018-09-22T13:51:06.407Z,22.20
2018-09-22T13:53:33.801Z,21.30
2018-09-22T13:56:01.217Z,21.50
2018-09-22T13:58:28.618Z,22.00
2018-09-22T14:00:56.005Z,22.50
2018-09-22T14:03:23.405Z,21.90
2018-09-22T14:05:50.842Z,21.60
2018-09-22T14:08:18.261Z,22.50
2018-09-22T14:10:45.665Z,22.50
2018-09-22T14:13:13.086Z,22.70
2018-09-22T14:15:40.590Z,22.60
2018-09-22T14:18:08.021Z,22.20
2018-09-22T14:20:35.422Z,21.70
2018-09-22T14:23:02.809Z,21.90
2018-09-22T14:25:30.194Z,21.80
2018-09-22T14:27:57.613Z,21.90
2018-09-22T14:30:25.021Z,21.20
2018-09-22T14:32:52.413Z,20.50
2018-09-22T14:35:19.813Z,20.60
2018-09-22T14:37:47.205Z,20.80
2018-09-22T14:40:14.606Z,20.90
2018-09-22T14:42:42.001Z,21.30
2018-09-22T14:45:09.414Z,22.10
2018-09-22T14:47:36.789Z,22.10
2018-09-22T14:50:04.462Z,22.40
2018-09-22T14:52:31.853Z,22.50
2018-09-22T14:54:59.269Z,22.50
2018-09-22T14:57:26.665Z,21.70
2018-09-22T14:59:54.074Z,20.50
2018-09-22T15:02:22.460Z,20.00
2018-09-22T15:04:49.855Z,19.80
2018-09-22T15:07:17.253Z,19.10
2018-09-22T15:09:44.654Z,18.90
2018-09-22T15:12:12.045Z,18.70
2018-09-22T15:14:39.435Z,18.60
2018-09-22T15:17:06.841Z,18.60
2018-09-22T15:19:34.645Z,18.50
2018-09-22T15:22:02.046Z,18.40
2018-09-22T15:24:30.122Z,18.40
2018-09-22T15:26:57.557Z,18.30
2018-09-22T15:29:24.957Z,18.30
2018-09-22T15:31:52.349Z,18.20
2018-09-22T15:34:19.767Z,17.90
2018-09-22T15:36:47.145Z,17.90
2018-09-22T15:39:14.550Z,17.80
2018-09-22T15:41:41.937Z,17.90
2018-09-22T15:44:09.343Z,17.70
2018-09-22T15:46:36.749Z,17.50
2018-09-22T15:49:04.170Z,17.40
2018-09-22T15:51:31.554Z,17.40
2018-09-22T15:53:58.955Z,17.30
2018-09-22T15:56:27.032Z,17.30
2018-09-22T15:58:55.078Z,17.30
2018-09-22T16:01:22.482Z,17.30
2018-09-22T16:03:49.885Z,17.20
2018-09-22T16:06:17.339Z,17.10
2018-09-22T16:08:45.120Z,17.00
2018-09-22T16:11:12.457Z,17.00
2018-09-22T16:13:39.875Z,17.10
2018-09-22T16:16:07.516Z,17.00
2018-09-22T16:18:34.826Z,16.90
2018-09-22T16:21:03.150Z,17.00
2018-09-22T16:23:31.206Z,17.00
2018-09-22T16:25:59.260Z,16.90
2018-09-22T16:28:26.684Z,16.80
2018-09-22T16:30:54.102Z,16.80
2018-09-22T16:33:22.149Z,16.80
2018-09-22T16:35:49.582Z,16.70
2018-09-22T16:38:23.433Z,16.70
2018-09-22T16:40:50.845Z,16.40
2018-09-22T16:43:18.255Z,16.20
2018-09-22T16:45:45.625Z,16.10
2018-09-22T16:48:13.025Z,16.10
2018-09-22T16:50:40.425Z,16.00
2018-09-22T16:53:07.821Z,16.00
2018-09-22T16:55:35.224Z,16.10
2018-09-22T16:58:02.889Z,16.10
2018-09-22T17:00:30.297Z,16.00
2018-09-22T17:02:57.706Z,16.00
2018-09-22T17:05:25.115Z,16.00
2018-09-22T17:07:52.577Z,16.00
2018-09-22T17:10:19.985Z,16.10
2018-09-22T17:12:48.477Z,16.00
2018-09-22T17:15:15.916Z,15.90
2018-09-22T17:17:43.325Z,15.90
2018-09-22T17:20:10.733Z,15.80
2018-09-22T17:22:38.349Z,15.80
2018-09-22T17:25:06.562Z,15.90
2018-09-22T17:27:34.703Z,15.90
2018-09-22T17:30:02.235Z,16.10
2018-09-22T17:32:29.694Z,16.30
2018-09-22T17:34:57.139Z,16.50
2018-09-22T17:37:24.546Z,16.50
2018-09-22T17:39:52.006Z,16.50
2018-09-22T17:42:19.415Z,16.50
2018-09-22T17:44:46.874Z,16.50
2018-09-22T17:47:15.040Z,16.40
2018-09-22T17:49:42.465Z,16.50
2018-09-22T17:52:09.906Z,16.40
2018-09-22T17:54:37.325Z,16.40
2018-09-22T17:57:07.536Z,16.30
2018-09-22T17:59:35.641Z,16.30
2018-09-22T18:02:03.710Z,16.30
2018-09-22T18:04:31.102Z,16.20
2018-09-22T18:06:59.170Z,16.20
2018-09-22T18:09:27.234Z,16.10
2018-09-22T18:11:55.325Z,15.90
2018-09-22T18:14:23.447Z,15.80
2018-09-22T18:16:51.562Z,15.80
2018-09-22T18:19:19.681Z,15.70
2018-09-22T18:21:47.085Z,15.70
2018-09-22T18:24:14.517Z,15.50
2018-09-22T18:26:41.942Z,15.30
2018-09-22T18:29:09.438Z,15.30
2018-09-22T18:31:36.878Z,15.20
2018-09-22T18:34:04.354Z,15.20
2018-09-22T18:36:31.714Z,15.10
2018-09-22T18:38:59.126Z,15.10
2018-09-22T18:41:26.517Z,15.10
2018-09-22T18:43:53.917Z,15.20
2018-09-22T18:46:21.348Z,15.20
2018-09-22T18:48:49.518Z,15.20
2018-09-22T18:51:16.929Z,15.20
2018-09-22T18:53:44.354Z,15.20
2018-09-22T18:56:11.757Z,15.20
2018-09-22T18:58:39.351Z,15.20
2018-09-22T19:01:06.733Z,15.20
2018-09-22T19:03:34.156Z,15.20
2018-09-22T19:06:01.643Z,15.20
2018-09-22T19:08:29.009Z,15.20
2018-09-22T19:10:57.084Z,15.10
2018-09-22T19:13:29.013Z,15.20
2018-09-22T19:15:59.298Z,15.20
2018-09-22T19:18:37.047Z,15.20
2018-09-22T19:21:11.651Z,15.10
2018-09-22T19:23:42.305Z,15.10
2018-09-22T19:26:17.400Z,14.90
2018-09-22T19:28:57.548Z,14.70
2018-09-22T19:31:29.966Z,14.70
2018-09-22T19:34:01.378Z,14.60
2018-09-22T19:36:48.462Z,14.60
2018-09-22T19:39:22.094Z,14.60
2018-09-22T19:41:53.917Z,14.70
2018-09-22T19:44:31.974Z,14.70
2018-09-22T19:47:06.426Z,14.70
2018-09-22T19:49:37.828Z,14.60
2018-09-22T19:52:08.768Z,14.60
2018-09-22T19:54:36.859Z,14.60
2018-09-22T19:57:04.948Z,14.60
2018-09-22T19:59:33.008Z,14.60
2018-09-22T20:02:01.115Z,14.60
2018-09-22T20:04:29.199Z,14.60
2018-09-22T20:06:57.258Z,14.70
2018-09-22T20:09:25.334Z,14.70
2018-09-22T20:11:53.402Z,14.60
2018-09-22T20:14:21.575Z,14.70
2018-09-22T20:16:49.807Z,14.60
2018-09-22T20:19:17.884Z,14.70
2018-09-22T20:21:45.983Z,14.70
2018-09-22T20:24:14.123Z,14.70
2018-09-22T20:26:42.175Z,14.70
2018-09-22T20:29:10.311Z,14.70
2018-09-22T20:31:38.403Z,14.80
2018-09-22T20:34:06.564Z,14.70
2018-09-22T20:36:34.647Z,14.60
2018-09-22T20:39:02.727Z,14.70
2018-09-22T20:41:30.839Z,14.70
2018-09-22T20:43:58.942Z,14.80
2018-09-22T20:46:27.080Z,14.90
2018-09-22T20:48:55.173Z,14.80
2018-09-22T20:51:23.255Z,14.80
2018-09-22T20:53:51.381Z,14.70
2018-09-22T20:56:19.401Z,14.80
2018-09-22T20:58:47.494Z,14.80
2018-09-22T21:01:15.699Z,14.70
2018-09-22T21:03:43.884Z,14.60
2018-09-22T21:06:11.978Z,14.60
2018-09-22T21:08:40.062Z,14.50
2018-09-22T21:11:08.139Z,14.50
2018-09-22T21:13:36.206Z,14.50
2018-09-22T21:16:04.554Z,14.50
2018-09-22T21:18:32.627Z,14.50
2018-09-22T21:21:00.709Z,14.60
2018-09-22T21:23:28.794Z,14.60
2018-09-22T21:25:56.956Z,14.60
2018-09-22T21:28:25.058Z,14.70
2018-09-22T21:30:53.188Z,14.70
2018-09-22T21:33:21.226Z,14.70
2018-09-22T21:35:49.350Z,14.70
2018-09-22T21:38:17.446Z,14.80
2018-09-22T21:40:45.547Z,14.80
2018-09-22T21:43:13.610Z,14.90
2018-09-22T21:45:41.742Z,14.80
2018-09-22T21:48:09.818Z,14.80
2018-09-22T21:50:37.913Z,14.60
2018-09-22T21:53:06.037Z,14.60
2018-09-22T21:55:34.158Z,14.50
2018-09-22T21:58:02.250Z,14.40
2018-09-22T22:00:30.336Z,14.40
2018-09-22T22:02:58.421Z,14.40
2018-09-22T22:05:26.564Z,14.40
2018-09-22T22:07:54.686Z,14.40
2018-09-22T22:10:22.754Z,14.40
2018-09-22T22:12:50.834Z,14.30
2018-09-22T22:15:18.898Z,14.30
2018-09-22T22:17:46.969Z,14.20
2018-09-22T22:20:15.050Z,14.20
2018-09-22T22:22:43.098Z,14.20
2018-09-22T22:25:11.194Z,14.30
2018-09-22T22:27:39.258Z,14.30
2018-09-22T22:30:08.863Z,14.30
2018-09-22T22:32:36.929Z,14.30
2018-09-22T22:35:05.127Z,14.30
2018-09-22T22:37:33.189Z,14.30
2018-09-22T22:40:01.270Z,14.30
2018-09-22T22:42:29.346Z,14.30
2018-09-22T22:44:57.446Z,14.10
2018-09-22T22:47:25.558Z,14.10
2018-09-22T22:49:53.635Z,14.10
2018-09-22T22:52:21.707Z,14.10
2018-09-22T22:54:49.777Z,14.20
2018-09-22T22:57:18.038Z,14.10
2018-09-22T22:59:46.180Z,13.90
2018-09-22T23:02:13.594Z,13.80
2018-09-22T23:04:41.825Z,13.60
2018-09-22T23:07:09.261Z,13.50
2018-09-22T23:09:36.713Z,13.50
2018-09-22T23:12:04.194Z,13.50
2018-09-22T23:14:32.273Z,13.50
2018-09-22T23:16:59.673Z,13.50
2018-09-22T23:19:27.114Z,13.50
2018-09-22T23:21:54.546Z,13.50
2018-09-22T23:24:21.962Z,13.40
2018-09-22T23:26:49.377Z,13.40
2018-09-22T23:29:16.820Z,13.40
2018-09-22T23:31:44.219Z,13.40
2018-09-22T23:34:11.641Z,13.50
2018-09-22T23:36:39.718Z,13.50
2018-09-22T23:39:09.155Z,13.50
2018-09-22T23:41:37.209Z,13.60
2018-09-22T23:44:04.616Z,13.70
2018-09-22T23:46:32.682Z,13.70
2018-09-22T23:49:00.121Z,13.70
2018-09-22T23:51:28.207Z,13.80
2018-09-22T23:53:55.610Z,13.80
2018-09-22T23:56:23.718Z,13.80
2018-09-22T23:58:51.130Z,13.90
